sensor_id;sensor_type;location;lat;lon;timestamp;P1;durP1;ratioP1;P2;durP2;ratioP2
69401;SDS011;56589;51.992;5.924;2024-03-22T00:01:13;39.92;;;21.83;;
69401;SDS011;56589;51.992;5.924;2024-03-22T00:03:38;43.13;;;21.50;;
69401;SDS011;56589;51.992;5.924;2024-03-22T00:06:04;39.10;;;21.67;;
69401;SDS011;56589;51.992;5.924;2024-03-22T00:08:30;38.50;;;21.45;;
69401;SDS011;56589;51.992;5.924;2024-03-22T00:10:56;39.45;;;20.90;;
69401;SDS011;56589;51.992;5.924;2024-03-22T00:13:22;38.55;;;21.58;;
69401;SDS011;56589;51.992;5.924;2024-03-22T00:15:48;40.35;;;20.65;;
69401;SDS011;56589;51.992;5.924;2024-03-22T00:18:16;44.80;;;22.48;;
69401;SDS011;56589;51.992;5.924;2024-03-22T00:20:42;47.08;;;22.92;;
69401;SDS011;56589;51.992;5.924;2024-03-22T00:23:07;42.80;;;21.33;;
69401;SDS011;56589;51.992;5.924;2024-03-22T00:25:33;43.33;;;22.90;;
69401;SDS011;56589;51.992;5.924;2024-03-22T00:27:59;44.70;;;22.33;;
69401;SDS011;56589;51.992;5.924;2024-03-22T00:30:25;40.20;;;21.60;;
69401;SDS011;56589;51.992;5.924;2024-03-22T00:32:50;42.03;;;22.02;;
69401;SDS011;56589;51.992;5.924;2024-03-22T00:35:19;47.70;;;22.67;;
69401;SDS011;56589;51.992;5.924;2024-03-22T00:37:45;45.63;;;22.65;;
69401;SDS011;56589;51.992;5.924;2024-03-22T00:40:11;43.70;;;22.70;;
69401;SDS011;56589;51.992;5.924;2024-03-22T00:42:37;43.70;;;22.48;;
69401;SDS011;56589;51.992;5.924;2024-03-22T00:45:03;43.88;;;22.10;;
69401;SDS011;56589;51.992;5.924;2024-03-22T00:47:30;42.97;;;22.98;;
69401;SDS011;56589;51.992;5.924;2024-03-22T00:49:56;41.05;;;22.20;;
69401;SDS011;56589;51.992;5.924;2024-03-22T00:52:24;43.47;;;22.77;;
69401;SDS011;56589;51.992;5.924;2024-03-22T00:54:52;39.47;;;21.98;;
69401;SDS011;56589;51.992;5.924;2024-03-22T00:57:18;43.17;;;22.30;;
69401;SDS011;56589;51.992;5.924;2024-03-22T00:59:44;45.97;;;22.98;;
69401;SDS011;56589;51.992;5.924;2024-03-22T01:02:10;43.63;;;22.75;;
69401;SDS011;56589;51.992;5.924;2024-03-22T01:04:36;43.65;;;22.70;;
69401;SDS011;56589;51.992;5.924;2024-03-22T01:07:02;44.60;;;23.20;;
69401;SDS011;56589;51.992;5.924;2024-03-22T01:09:30;41.15;;;22.13;;
69401;SDS011;56589;51.992;5.924;2024-03-22T01:11:56;48.78;;;24.08;;
69401;SDS011;56589;51.992;5.924;2024-03-22T01:14:22;44.63;;;22.73;;
69401;SDS011;56589;51.992;5.924;2024-03-22T01:16:47;48.15;;;23.98;;
69401;SDS011;56589;51.992;5.924;2024-03-22T01:19:13;44.40;;;23.52;;
69401;SDS011;56589;51.992;5.924;2024-03-22T01:21:39;47.30;;;23.52;;
69401;SDS011;56589;51.992;5.924;2024-03-22T01:24:05;42.38;;;22.27;;
69401;SDS011;56589;51.992;5.924;2024-03-22T01:26:33;43.10;;;22.58;;
69401;SDS011;56589;51.992;5.924;2024-03-22T01:28:59;54.33;;;23.60;;
69401;SDS011;56589;51.992;5.924;2024-03-22T01:31:25;46.22;;;24.27;;
69401;SDS011;56589;51.992;5.924;2024-03-22T01:33:51;49.22;;;23.60;;
69401;SDS011;56589;51.992;5.924;2024-03-22T01:36:16;48.17;;;23.42;;
69401;SDS011;56589;51.992;5.924;2024-03-22T01:38:42;43.05;;;24.10;;
69401;SDS011;56589;51.992;5.924;2024-03-22T01:41:08;52.35;;;23.98;;
69401;SDS011;56589;51.992;5.924;2024-03-22T01:43:36;44.40;;;23.48;;
69401;SDS011;56589;51.992;5.924;2024-03-22T01:46:03;46.78;;;22.75;;
69401;SDS011;56589;51.992;5.924;2024-03-22T01:48:32;44.17;;;23.48;;
69401;SDS011;56589;51.992;5.924;2024-03-22T01:50:58;45.38;;;22.33;;
69401;SDS011;56589;51.992;5.924;2024-03-22T01:53:24;49.40;;;24.55;;
69401;SDS011;56589;51.992;5.924;2024-03-22T01:55:52;46.58;;;23.08;;
69401;SDS011;56589;51.992;5.924;2024-03-22T01:58:18;46.25;;;23.77;;
69401;SDS011;56589;51.992;5.924;2024-03-22T02:00:46;47.80;;;24.42;;
69401;SDS011;56589;51.992;5.924;2024-03-22T02:03:12;44.25;;;22.27;;
69401;SDS011;56589;51.992;5.924;2024-03-22T02:05:38;49.30;;;23.92;;
69401;SDS011;56589;51.992;5.924;2024-03-22T02:08:04;42.78;;;23.38;;
69401;SDS011;56589;51.992;5.924;2024-03-22T02:10:31;45.08;;;23.42;;
69401;SDS011;56589;51.992;5.924;2024-03-22T02:12:57;44.53;;;23.45;;
69401;SDS011;56589;51.992;5.924;2024-03-22T02:15:23;48.88;;;24.80;;
69401;SDS011;56589;51.992;5.924;2024-03-22T02:17:54;48.58;;;23.83;;
69401;SDS011;56589;51.992;5.924;2024-03-22T02:20:20;46.25;;;24.85;;
69401;SDS011;56589;51.992;5.924;2024-03-22T02:22:46;47.30;;;24.58;;
69401;SDS011;56589;51.992;5.924;2024-03-22T02:25:14;49.40;;;23.50;;
69401;SDS011;56589;51.992;5.924;2024-03-22T02:27:40;47.40;;;24.30;;
69401;SDS011;56589;51.992;5.924;2024-03-22T02:30:07;49.63;;;24.80;;
69401;SDS011;56589;51.992;5.924;2024-03-22T02:32:34;46.55;;;23.02;;
69401;SDS011;56589;51.992;5.924;2024-03-22T02:34:59;45.80;;;23.35;;
69401;SDS011;56589;51.992;5.924;2024-03-22T02:37:25;51.63;;;24.67;;
69401;SDS011;56589;51.992;5.924;2024-03-22T02:39:51;44.53;;;23.55;;
69401;SDS011;56589;51.992;5.924;2024-03-22T02:42:19;46.63;;;24.27;;
69401;SDS011;56589;51.992;5.924;2024-03-22T02:44:45;42.42;;;23.30;;
69401;SDS011;56589;51.992;5.924;2024-03-22T02:47:11;48.30;;;24.73;;
69401;SDS011;56589;51.992;5.924;2024-03-22T02:49:38;41.05;;;23.40;;
69401;SDS011;56589;51.992;5.924;2024-03-22T02:52:04;45.78;;;25.40;;
69401;SDS011;56589;51.992;5.924;2024-03-22T02:54:30;45.58;;;24.38;;
69401;SDS011;56589;51.992;5.924;2024-03-22T02:56:56;45.08;;;24.48;;
69401;SDS011;56589;51.992;5.924;2024-03-22T02:59:27;53.15;;;24.20;;
69401;SDS011;56589;51.992;5.924;2024-03-22T03:01:53;45.90;;;24.38;;
69401;SDS011;56589;51.992;5.924;2024-03-22T03:04:19;45.05;;;23.45;;
69401;SDS011;56589;51.992;5.924;2024-03-22T03:06:45;48.45;;;26.05;;
69401;SDS011;56589;51.992;5.924;2024-03-22T03:09:10;47.15;;;23.52;;
69401;SDS011;56589;51.992;5.924;2024-03-22T03:11:38;42.97;;;23.10;;
69401;SDS011;56589;51.992;5.924;2024-03-22T03:14:04;50.40;;;26.50;;
69401;SDS011;56589;51.992;5.924;2024-03-22T03:16:33;45.67;;;24.00;;
69401;SDS011;56589;51.992;5.924;2024-03-22T03:18:59;45.30;;;23.15;;
69401;SDS011;56589;51.992;5.924;2024-03-22T03:21:24;49.38;;;24.40;;
69401;SDS011;56589;51.992;5.924;2024-03-22T03:23:50;45.85;;;23.67;;
69401;SDS011;56589;51.992;5.924;2024-03-22T03:26:16;49.00;;;25.05;;
69401;SDS011;56589;51.992;5.924;2024-03-22T03:28:42;49.30;;;25.02;;
69401;SDS011;56589;51.992;5.924;2024-03-22T03:31:07;44.50;;;23.00;;
69401;SDS011;56589;51.992;5.924;2024-03-22T03:33:37;45.80;;;22.35;;
69401;SDS011;56589;51.992;5.924;2024-03-22T03:36:04;47.72;;;23.88;;
69401;SDS011;56589;51.992;5.924;2024-03-22T03:38:30;47.90;;;23.55;;
69401;SDS011;56589;51.992;5.924;2024-03-22T03:40:56;46.58;;;24.90;;
69401;SDS011;56589;51.992;5.924;2024-03-22T03:43:23;45.15;;;23.35;;
69401;SDS011;56589;51.992;5.924;2024-03-22T03:45:49;42.25;;;23.50;;
69401;SDS011;56589;51.992;5.924;2024-03-22T03:48:14;45.22;;;22.52;;
69401;SDS011;56589;51.992;5.924;2024-03-22T03:50:43;44.30;;;23.83;;
69401;SDS011;56589;51.992;5.924;2024-03-22T03:53:17;41.88;;;22.92;;
69401;SDS011;56589;51.992;5.924;2024-03-22T03:55:43;41.17;;;24.13;;
69401;SDS011;56589;51.992;5.924;2024-03-22T03:58:09;41.63;;;23.25;;
69401;SDS011;56589;51.992;5.924;2024-03-22T04:00:35;43.53;;;24.92;;
69401;SDS011;56589;51.992;5.924;2024-03-22T04:03:01;40.85;;;22.10;;
69401;SDS011;56589;51.992;5.924;2024-03-22T04:05:27;42.38;;;23.23;;
69401;SDS011;56589;51.992;5.924;2024-03-22T04:07:55;42.30;;;23.25;;
69401;SDS011;56589;51.992;5.924;2024-03-22T04:10:21;43.50;;;23.63;;
69401;SDS011;56589;51.992;5.924;2024-03-22T04:12:46;41.22;;;23.92;;
69401;SDS011;56589;51.992;5.924;2024-03-22T04:15:15;41.88;;;23.02;;
69401;SDS011;56589;51.992;5.924;2024-03-22T04:17:42;47.42;;;23.13;;
69401;SDS011;56589;51.992;5.924;2024-03-22T04:20:08;42.58;;;23.00;;
69401;SDS011;56589;51.992;5.924;2024-03-22T04:22:35;42.72;;;23.98;;
69401;SDS011;56589;51.992;5.924;2024-03-22T04:25:04;43.80;;;23.92;;
69401;SDS011;56589;51.992;5.924;2024-03-22T04:27:31;43.30;;;23.48;;
69401;SDS011;56589;51.992;5.924;2024-03-22T04:30:00;46.28;;;24.17;;
69401;SDS011;56589;51.992;5.924;2024-03-22T04:32:26;40.00;;;23.23;;
69401;SDS011;56589;51.992;5.924;2024-03-22T04:34:53;43.80;;;22.88;;
69401;SDS011;56589;51.992;5.924;2024-03-22T04:37:19;42.55;;;23.27;;
69401;SDS011;56589;51.992;5.924;2024-03-22T04:39:45;42.85;;;23.38;;
69401;SDS011;56589;51.992;5.924;2024-03-22T04:42:14;45.75;;;24.88;;
69401;SDS011;56589;51.992;5.924;2024-03-22T04:44:39;44.53;;;23.63;;
69401;SDS011;56589;51.992;5.924;2024-03-22T04:47:05;42.67;;;23.95;;
69401;SDS011;56589;51.992;5.924;2024-03-22T04:49:31;40.65;;;23.25;;
69401;SDS011;56589;51.992;5.924;2024-03-22T04:51:59;41.70;;;23.35;;
69401;SDS011;56589;51.992;5.924;2024-03-22T04:54:26;38.00;;;21.50;;
69401;SDS011;56589;51.992;5.924;2024-03-22T04:56:52;40.17;;;22.67;;
69401;SDS011;56589;51.992;5.924;2024-03-22T04:59:21;47.72;;;24.55;;
69401;SDS011;56589;51.992;5.924;2024-03-22T05:01:47;46.60;;;21.88;;
69401;SDS011;56589;51.992;5.924;2024-03-22T05:04:12;41.83;;;23.45;;
69401;SDS011;56589;51.992;5.924;2024-03-22T05:06:38;42.13;;;21.67;;
69401;SDS011;56589;51.992;5.924;2024-03-22T05:09:04;39.00;;;21.20;;
69401;SDS011;56589;51.992;5.924;2024-03-22T05:11:30;36.08;;;19.45;;
69401;SDS011;56589;51.992;5.924;2024-03-22T05:13:57;39.92;;;21.33;;
69401;SDS011;56589;51.992;5.924;2024-03-22T05:16:25;36.00;;;21.20;;
69401;SDS011;56589;51.992;5.924;2024-03-22T05:18:51;39.25;;;21.17;;
69401;SDS011;56589;51.992;5.924;2024-03-22T05:21:17;34.17;;;19.55;;
69401;SDS011;56589;51.992;5.924;2024-03-22T05:23:42;35.17;;;19.83;;
69401;SDS011;56589;51.992;5.924;2024-03-22T05:26:08;35.47;;;20.17;;
69401;SDS011;56589;51.992;5.924;2024-03-22T05:28:34;35.17;;;19.77;;
69401;SDS011;56589;51.992;5.924;2024-03-22T05:31:00;34.10;;;19.40;;
69401;SDS011;56589;51.992;5.924;2024-03-22T05:33:28;35.92;;;19.25;;
69401;SDS011;56589;51.992;5.924;2024-03-22T05:35:54;37.90;;;20.25;;
69401;SDS011;56589;51.992;5.924;2024-03-22T05:38:20;31.63;;;17.58;;
69401;SDS011;56589;51.992;5.924;2024-03-22T05:40:46;36.95;;;19.42;;
69401;SDS011;56589;51.992;5.924;2024-03-22T05:43:12;36.15;;;19.50;;
69401;SDS011;56589;51.992;5.924;2024-03-22T05:45:38;31.83;;;18.45;;
69401;SDS011;56589;51.992;5.924;2024-03-22T05:48:04;31.08;;;18.30;;
69401;SDS011;56589;51.992;5.924;2024-03-22T05:50:33;36.45;;;18.50;;
69401;SDS011;56589;51.992;5.924;2024-03-22T05:52:59;30.27;;;18.02;;
69401;SDS011;56589;51.992;5.924;2024-03-22T05:55:25;31.60;;;16.77;;
69401;SDS011;56589;51.992;5.924;2024-03-22T05:57:51;32.67;;;17.80;;
69401;SDS011;56589;51.992;5.924;2024-03-22T06:00:17;33.10;;;18.23;;
69401;SDS011;56589;51.992;5.924;2024-03-22T06:02:43;33.10;;;17.63;;
69401;SDS011;56589;51.992;5.924;2024-03-22T06:05:09;29.00;;;16.95;;
69401;SDS011;56589;51.992;5.924;2024-03-22T06:07:37;34.28;;;18.38;;
69401;SDS011;56589;51.992;5.924;2024-03-22T06:10:03;30.27;;;17.23;;
69401;SDS011;56589;51.992;5.924;2024-03-22T06:12:31;33.45;;;17.83;;
69401;SDS011;56589;51.992;5.924;2024-03-22T06:14:57;31.90;;;17.42;;
69401;SDS011;56589;51.992;5.924;2024-03-22T06:17:22;30.15;;;16.58;;
69401;SDS011;56589;51.992;5.924;2024-03-22T06:19:48;27.85;;;15.60;;
69401;SDS011;56589;51.992;5.924;2024-03-22T06:22:14;31.33;;;17.73;;
69401;SDS011;56589;51.992;5.924;2024-03-22T06:24:42;30.48;;;17.00;;
69401;SDS011;56589;51.992;5.924;2024-03-22T06:27:10;29.45;;;16.52;;
69401;SDS011;56589;51.992;5.924;2024-03-22T06:29:35;31.85;;;16.42;;
69401;SDS011;56589;51.992;5.924;2024-03-22T06:32:01;29.10;;;16.30;;
69401;SDS011;56589;51.992;5.924;2024-03-22T06:34:27;33.70;;;16.92;;
69401;SDS011;56589;51.992;5.924;2024-03-22T06:36:53;28.08;;;16.48;;
69401;SDS011;56589;51.992;5.924;2024-03-22T06:39:19;28.40;;;15.70;;
69401;SDS011;56589;51.992;5.924;2024-03-22T06:41:47;29.85;;;15.45;;
69401;SDS011;56589;51.992;5.924;2024-03-22T06:44:13;31.05;;;15.85;;
69401;SDS011;56589;51.992;5.924;2024-03-22T06:46:38;28.25;;;15.65;;
69401;SDS011;56589;51.992;5.924;2024-03-22T06:49:04;27.17;;;15.70;;
69401;SDS011;56589;51.992;5.924;2024-03-22T06:51:30;28.70;;;16.40;;
69401;SDS011;56589;51.992;5.924;2024-03-22T06:53:56;30.83;;;15.50;;
69401;SDS011;56589;51.992;5.924;2024-03-22T06:56:22;25.08;;;14.48;;
69401;SDS011;56589;51.992;5.924;2024-03-22T06:58:50;27.00;;;15.50;;
69401;SDS011;56589;51.992;5.924;2024-03-22T07:01:16;26.25;;;14.55;;
69401;SDS011;56589;51.992;5.924;2024-03-22T07:03:42;26.90;;;15.75;;
69401;SDS011;56589;51.992;5.924;2024-03-22T07:06:08;27.60;;;15.60;;
69401;SDS011;56589;51.992;5.924;2024-03-22T07:08:33;29.45;;;15.98;;
69401;SDS011;56589;51.992;5.924;2024-03-22T07:10:59;26.75;;;15.20;;
69401;SDS011;56589;51.992;5.924;2024-03-22T07:13:25;24.95;;;15.10;;
69401;SDS011;56589;51.992;5.924;2024-03-22T07:15:53;27.08;;;16.00;;
69401;SDS011;56589;51.992;5.924;2024-03-22T07:18:19;27.80;;;16.17;;
69401;SDS011;56589;51.992;5.924;2024-03-22T07:20:45;31.60;;;15.68;;
69401;SDS011;56589;51.992;5.924;2024-03-22T07:23:11;25.08;;;14.93;;
69401;SDS011;56589;51.992;5.924;2024-03-22T07:25:36;31.05;;;15.73;;
69401;SDS011;56589;51.992;5.924;2024-03-22T07:28:02;28.15;;;14.40;;
69401;SDS011;56589;51.992;5.924;2024-03-22T07:30:28;26.50;;;15.68;;
69401;SDS011;56589;51.992;5.924;2024-03-22T07:32:57;26.33;;;15.15;;
69401;SDS011;56589;51.992;5.924;2024-03-22T07:35:22;27.20;;;15.15;;
69401;SDS011;56589;51.992;5.924;2024-03-22T07:37:48;26.80;;;15.65;;
69401;SDS011;56589;51.992;5.924;2024-03-22T07:40:18;24.85;;;14.82;;
69401;SDS011;56589;51.992;5.924;2024-03-22T07:42:44;25.40;;;15.07;;
69401;SDS011;56589;51.992;5.924;2024-03-22T07:45:10;25.85;;;14.05;;
69401;SDS011;56589;51.992;5.924;2024-03-22T07:47:37;28.98;;;15.20;;
69401;SDS011;56589;51.992;5.924;2024-03-22T07:50:06;28.08;;;14.57;;
69401;SDS011;56589;51.992;5.924;2024-03-22T07:52:33;22.88;;;13.63;;
69401;SDS011;56589;51.992;5.924;2024-03-22T07:55:00;22.30;;;13.40;;
69401;SDS011;56589;51.992;5.924;2024-03-22T07:57:26;22.80;;;13.95;;
69401;SDS011;56589;51.992;5.924;2024-03-22T07:59:52;25.30;;;14.85;;
69401;SDS011;56589;51.992;5.924;2024-03-22T08:02:18;26.75;;;14.18;;
69401;SDS011;56589;51.992;5.924;2024-03-22T08:04:44;22.33;;;14.00;;
69401;SDS011;56589;51.992;5.924;2024-03-22T08:07:12;25.83;;;14.60;;
69401;SDS011;56589;51.992;5.924;2024-03-22T08:09:38;25.50;;;15.27;;
69401;SDS011;56589;51.992;5.924;2024-03-22T08:12:04;27.23;;;14.52;;
69401;SDS011;56589;51.992;5.924;2024-03-22T08:14:30;27.80;;;15.52;;
69401;SDS011;56589;51.992;5.924;2024-03-22T08:16:56;27.75;;;15.38;;
69401;SDS011;56589;51.992;5.924;2024-03-22T08:19:22;25.40;;;14.20;;
69401;SDS011;56589;51.992;5.924;2024-03-22T08:21:48;25.30;;;14.70;;
69401;SDS011;56589;51.992;5.924;2024-03-22T08:24:16;28.77;;;15.98;;
69401;SDS011;56589;51.992;5.924;2024-03-22T08:26:43;24.90;;;14.27;;
69401;SDS011;56589;51.992;5.924;2024-03-22T08:29:09;27.50;;;15.20;;
69401;SDS011;56589;51.992;5.924;2024-03-22T08:31:35;29.60;;;15.45;;
69401;SDS011;56589;51.992;5.924;2024-03-22T08:34:01;26.92;;;15.90;;
69401;SDS011;56589;51.992;5.924;2024-03-22T08:36:27;25.63;;;15.73;;
69401;SDS011;56589;51.992;5.924;2024-03-22T08:38:53;28.10;;;16.15;;
69401;SDS011;56589;51.992;5.924;2024-03-22T08:41:21;27.83;;;15.93;;
69401;SDS011;56589;51.992;5.924;2024-03-22T08:43:47;30.45;;;16.63;;
69401;SDS011;56589;51.992;5.924;2024-03-22T08:46:13;29.75;;;17.50;;
69401;SDS011;56589;51.992;5.924;2024-03-22T08:48:39;31.67;;;17.17;;
69401;SDS011;56589;51.992;5.924;2024-03-22T08:51:04;33.65;;;17.85;;
69401;SDS011;56589;51.992;5.924;2024-03-22T08:53:30;30.27;;;17.75;;
69401;SDS011;56589;51.992;5.924;2024-03-22T08:55:56;29.45;;;18.35;;
69401;SDS011;56589;51.992;5.924;2024-03-22T08:58:24;34.40;;;18.83;;
69401;SDS011;56589;51.992;5.924;2024-03-22T09:00:50;32.83;;;19.35;;
69401;SDS011;56589;51.992;5.924;2024-03-22T09:03:16;37.60;;;20.42;;
69401;SDS011;56589;51.992;5.924;2024-03-22T09:05:42;34.47;;;19.35;;
69401;SDS011;56589;51.992;5.924;2024-03-22T09:08:08;36.28;;;20.92;;
69401;SDS011;56589;51.992;5.924;2024-03-22T09:10:34;33.40;;;20.17;;
69401;SDS011;56589;51.992;5.924;2024-03-22T09:13:01;35.95;;;20.80;;
69401;SDS011;56589;51.992;5.924;2024-03-22T09:15:29;34.53;;;20.35;;
69401;SDS011;56589;51.992;5.924;2024-03-22T09:17:55;37.88;;;21.00;;
69401;SDS011;56589;51.992;5.924;2024-03-22T09:20:21;38.35;;;21.25;;
69401;SDS011;56589;51.992;5.924;2024-03-22T09:22:49;36.28;;;21.75;;
69401;SDS011;56589;51.992;5.924;2024-03-22T09:25:14;38.25;;;22.27;;
69401;SDS011;56589;51.992;5.924;2024-03-22T09:27:40;37.33;;;21.25;;
69401;SDS011;56589;51.992;5.924;2024-03-22T09:30:09;39.13;;;20.63;;
69401;SDS011;56589;51.992;5.924;2024-03-22T09:32:38;39.15;;;20.77;;
69401;SDS011;56589;51.992;5.924;2024-03-22T09:35:05;35.30;;;21.20;;
69401;SDS011;56589;51.992;5.924;2024-03-22T09:37:31;38.10;;;20.83;;
69401;SDS011;56589;51.992;5.924;2024-03-22T09:39:57;36.67;;;20.90;;
69401;SDS011;56589;51.992;5.924;2024-03-22T09:42:23;39.70;;;20.30;;
69401;SDS011;56589;51.992;5.924;2024-03-22T09:44:51;34.35;;;19.15;;
69401;SDS011;56589;51.992;5.924;2024-03-22T09:47:17;36.45;;;20.15;;
69401;SDS011;56589;51.992;5.924;2024-03-22T09:49:46;37.80;;;19.83;;
69401;SDS011;56589;51.992;5.924;2024-03-22T09:52:13;38.47;;;21.35;;
69401;SDS011;56589;51.992;5.924;2024-03-22T09:54:41;37.10;;;20.08;;
69401;SDS011;56589;51.992;5.924;2024-03-22T09:57:08;41.10;;;21.10;;
69401;SDS011;56589;51.992;5.924;2024-03-22T09:59:38;38.90;;;20.42;;
69401;SDS011;56589;51.992;5.924;2024-03-22T10:02:04;36.30;;;21.15;;
69401;SDS011;56589;51.992;5.924;2024-03-22T10:04:35;36.47;;;21.33;;
69401;SDS011;56589;51.992;5.924;2024-03-22T10:07:04;35.65;;;21.35;;
69401;SDS011;56589;51.992;5.924;2024-03-22T10:09:30;40.58;;;22.52;;
69401;SDS011;56589;51.992;5.924;2024-03-22T10:11:57;40.25;;;22.08;;
69401;SDS011;56589;51.992;5.924;2024-03-22T10:14:23;36.30;;;20.25;;
69401;SDS011;56589;51.992;5.924;2024-03-22T10:16:49;41.72;;;22.35;;
69401;SDS011;56589;51.992;5.924;2024-03-22T10:19:16;33.60;;;20.33;;
69401;SDS011;56589;51.992;5.924;2024-03-22T10:21:42;36.10;;;21.00;;
69401;SDS011;56589;51.992;5.924;2024-03-22T10:24:10;37.08;;;20.70;;
69401;SDS011;56589;51.992;5.924;2024-03-22T10:26:36;34.13;;;19.55;;
69401;SDS011;56589;51.992;5.924;2024-03-22T10:29:03;29.70;;;18.08;;
69401;SDS011;56589;51.992;5.924;2024-03-22T10:31:31;30.70;;;17.00;;
69401;SDS011;56589;51.992;5.924;2024-03-22T10:34:00;28.33;;;17.98;;
69401;SDS011;56589;51.992;5.924;2024-03-22T10:36:28;30.05;;;17.27;;
69401;SDS011;56589;51.992;5.924;2024-03-22T10:38:54;28.58;;;18.55;;
69401;SDS011;56589;51.992;5.924;2024-03-22T10:41:24;33.58;;;18.05;;
69401;SDS011;56589;51.992;5.924;2024-03-22T10:43:50;27.60;;;17.73;;
69401;SDS011;56589;51.992;5.924;2024-03-22T10:46:16;28.73;;;18.35;;
69401;SDS011;56589;51.992;5.924;2024-03-22T10:48:45;29.30;;;17.60;;
69401;SDS011;56589;51.992;5.924;2024-03-22T10:51:12;27.33;;;16.40;;
69401;SDS011;56589;51.992;5.924;2024-03-22T10:53:41;28.23;;;16.05;;
69401;SDS011;56589;51.992;5.924;2024-03-22T10:56:10;22.92;;;15.55;;
69401;SDS011;56589;51.992;5.924;2024-03-22T10:58:44;25.83;;;15.80;;
69401;SDS011;56589;51.992;5.924;2024-03-22T11:01:20;23.50;;;14.95;;
69401;SDS011;56589;51.992;5.924;2024-03-22T11:03:52;25.05;;;15.38;;
69401;SDS011;56589;51.992;5.924;2024-03-22T11:06:30;24.30;;;15.73;;
69401;SDS011;56589;51.992;5.924;2024-03-22T11:08:58;26.48;;;15.35;;
69401;SDS011;56589;51.992;5.924;2024-03-22T11:11:25;22.10;;;14.15;;
69401;SDS011;56589;51.992;5.924;2024-03-22T11:13:56;25.13;;;15.82;;
69401;SDS011;56589;51.992;5.924;2024-03-22T11:16:22;27.33;;;16.52;;
69401;SDS011;56589;51.992;5.924;2024-03-22T11:18:49;28.38;;;15.75;;
69401;SDS011;56589;51.992;5.924;2024-03-22T11:21:15;23.02;;;13.77;;
69401;SDS011;56589;51.992;5.924;2024-03-22T11:23:44;23.90;;;14.57;;
69401;SDS011;56589;51.992;5.924;2024-03-22T11:26:11;19.75;;;12.80;;
69401;SDS011;56589;51.992;5.924;2024-03-22T11:28:37;16.90;;;11.70;;
69401;SDS011;56589;51.992;5.924;2024-03-22T11:31:06;18.83;;;11.75;;
69401;SDS011;56589;51.992;5.924;2024-03-22T11:33:31;18.73;;;10.85;;
69401;SDS011;56589;51.992;5.924;2024-03-22T11:35:58;18.58;;;11.77;;
69401;SDS011;56589;51.992;5.924;2024-03-22T11:38:23;16.75;;;11.25;;
69401;SDS011;56589;51.992;5.924;2024-03-22T11:40:51;16.23;;;11.43;;
69401;SDS011;56589;51.992;5.924;2024-03-22T11:43:17;14.25;;;10.13;;
69401;SDS011;56589;51.992;5.924;2024-03-22T11:45:43;13.80;;;9.55;;
69401;SDS011;56589;51.992;5.924;2024-03-22T11:48:12;14.07;;;9.02;;
69401;SDS011;56589;51.992;5.924;2024-03-22T11:50:38;13.27;;;8.68;;
69401;SDS011;56589;51.992;5.924;2024-03-22T11:53:04;13.73;;;9.02;;
69401;SDS011;56589;51.992;5.924;2024-03-22T11:55:31;17.15;;;9.05;;
69401;SDS011;56589;51.992;5.924;2024-03-22T11:57:57;12.65;;;7.75;;
69401;SDS011;56589;51.992;5.924;2024-03-22T12:00:23;11.23;;;7.15;;
69401;SDS011;56589;51.992;5.924;2024-03-22T12:02:50;11.07;;;7.07;;
69401;SDS011;56589;51.992;5.924;2024-03-22T12:05:19;8.88;;;6.25;;
69401;SDS011;56589;51.992;5.924;2024-03-22T12:07:46;10.45;;;6.53;;
69401;SDS011;56589;51.992;5.924;2024-03-22T12:10:12;7.93;;;5.20;;
69401;SDS011;56589;51.992;5.924;2024-03-22T12:12:38;8.73;;;5.93;;
69401;SDS011;56589;51.992;5.924;2024-03-22T12:15:04;9.15;;;6.95;;
69401;SDS011;56589;51.992;5.924;2024-03-22T12:17:31;9.38;;;6.32;;
69401;SDS011;56589;51.992;5.924;2024-03-22T12:19:57;10.43;;;6.70;;
69401;SDS011;56589;51.992;5.924;2024-03-22T12:22:25;8.15;;;6.03;;
69401;SDS011;56589;51.992;5.924;2024-03-22T12:24:51;9.20;;;6.95;;
69401;SDS011;56589;51.992;5.924;2024-03-22T12:27:17;9.93;;;5.80;;
69401;SDS011;56589;51.992;5.924;2024-03-22T12:29:43;7.65;;;5.45;;
69401;SDS011;56589;51.992;5.924;2024-03-22T12:32:08;6.70;;;5.25;;
69401;SDS011;56589;51.992;5.924;2024-03-22T12:34:35;9.90;;;6.72;;
69401;SDS011;56589;51.992;5.924;2024-03-22T12:37:01;8.43;;;6.30;;
69401;SDS011;56589;51.992;5.924;2024-03-22T12:39:29;8.60;;;5.82;;
69401;SDS011;56589;51.992;5.924;2024-03-22T12:41:55;7.75;;;5.78;;
69401;SDS011;56589;51.992;5.924;2024-03-22T12:44:21;7.25;;;5.22;;
69401;SDS011;56589;51.992;5.924;2024-03-22T12:46:47;7.00;;;4.65;;
69401;SDS011;56589;51.992;5.924;2024-03-22T12:49:13;5.90;;;4.60;;
69401;SDS011;56589;51.992;5.924;2024-03-22T12:51:38;6.72;;;4.38;;
69401;SDS011;56589;51.992;5.924;2024-03-22T12:54:04;6.78;;;4.70;;
69401;SDS011;56589;51.992;5.924;2024-03-22T12:56:35;5.80;;;4.20;;
69401;SDS011;56589;51.992;5.924;2024-03-22T12:59:00;5.70;;;3.97;;
69401;SDS011;56589;51.992;5.924;2024-03-22T13:01:26;5.22;;;3.90;;
69401;SDS011;56589;51.992;5.924;2024-03-22T13:03:52;6.65;;;4.70;;
69401;SDS011;56589;51.992;5.924;2024-03-22T13:06:18;5.55;;;4.20;;
69401;SDS011;56589;51.992;5.924;2024-03-22T13:08:43;4.60;;;3.92;;
69401;SDS011;56589;51.992;5.924;2024-03-22T13:11:09;4.72;;;4.03;;
69401;SDS011;56589;51.992;5.924;2024-03-22T13:13:38;4.68;;;3.85;;
69401;SDS011;56589;51.992;5.924;2024-03-22T13:16:05;4.65;;;3.88;;
69401;SDS011;56589;51.992;5.924;2024-03-22T13:18:31;4.25;;;3.05;;
69401;SDS011;56589;51.992;5.924;2024-03-22T13:20:56;3.80;;;3.33;;
69401;SDS011;56589;51.992;5.924;2024-03-22T13:23:22;4.45;;;3.40;;
69401;SDS011;56589;51.992;5.924;2024-03-22T13:25:50;4.35;;;3.10;;
69401;SDS011;56589;51.992;5.924;2024-03-22T13:28:16;5.28;;;3.13;;
69401;SDS011;56589;51.992;5.924;2024-03-22T13:30:45;5.03;;;3.53;;
69401;SDS011;56589;51.992;5.924;2024-03-22T13:33:11;3.33;;;2.95;;
69401;SDS011;56589;51.992;5.924;2024-03-22T13:35:44;4.20;;;3.00;;
69401;SDS011;56589;51.992;5.924;2024-03-22T13:38:10;3.45;;;2.35;;
69401;SDS011;56589;51.992;5.924;2024-03-22T13:40:36;3.13;;;2.58;;
69401;SDS011;56589;51.992;5.924;2024-03-22T13:43:04;5.38;;;2.70;;
69401;SDS011;56589;51.992;5.924;2024-03-22T13:45:30;4.50;;;2.67;;
69401;SDS011;56589;51.992;5.924;2024-03-22T13:47:58;5.40;;;2.88;;
69401;SDS011;56589;51.992;5.924;2024-03-22T13:50:25;4.45;;;2.67;;
69401;SDS011;56589;51.992;5.924;2024-03-22T13:52:51;3.63;;;2.70;;
69401;SDS011;56589;51.992;5.924;2024-03-22T13:55:16;3.53;;;2.53;;
69401;SDS011;56589;51.992;5.924;2024-03-22T13:57:42;3.78;;;2.47;;
69401;SDS011;56589;51.992;5.924;2024-03-22T14:00:09;4.40;;;2.83;;
69401;SDS011;56589;51.992;5.924;2024-03-22T14:02:36;4.45;;;2.75;;
69401;SDS011;56589;51.992;5.924;2024-03-22T14:05:04;6.05;;;2.75;;
69401;SDS011;56589;51.992;5.924;2024-03-22T14:07:30;4.30;;;2.20;;
69401;SDS011;56589;51.992;5.924;2024-03-22T14:09:57;5.55;;;2.70;;
69401;SDS011;56589;51.992;5.924;2024-03-22T14:12:23;6.22;;;3.28;;
69401;SDS011;56589;51.992;5.924;2024-03-22T14:14:48;6.45;;;3.10;;
69401;SDS011;56589;51.992;5.924;2024-03-22T14:17:14;4.75;;;2.85;;
69401;SDS011;56589;51.992;5.924;2024-03-22T14:19:40;6.20;;;3.25;;
69401;SDS011;56589;51.992;5.924;2024-03-22T14:22:09;5.30;;;2.80;;